createdAt,value
2022-09-20T00:00:47.667Z,8.17
2022-09-20T00:04:49.015Z,11.33
2022-09-20T00:08:50.311Z,8.40
2022-09-20T00:12:51.763Z,15.00
2022-09-20T00:16:52.809Z,12.40
2022-09-20T00:20:53.760Z,9.80
2022-09-20T00:24:54.610Z,7.80
2022-09-20T00:28:57.668Z,11.73
2022-09-20T00:32:58.850Z,12.37
2022-09-20T00:36:59.687Z,14.10
2022-09-20T00:41:00.649Z,18.07
2022-09-20T00:45:07.775Z,11.20
2022-09-20T00:49:21.591Z,9.87
2022-09-20T00:53:35.974Z,12.40
2022-09-20T00:57:38.130Z,13.67
2022-09-20T01:01:39.482Z,12.63
2022-09-20T01:05:42.595Z,15.73
2022-09-20T01:09:43.716Z,13.13
2022-09-20T01:13:44.641Z,10.97
2022-09-20T01:17:49.216Z,20.97
2022-09-20T01:21:51.886Z,19.10
2022-09-20T01:26:19.668Z,16.43
2022-09-20T01:30:24.380Z,17.53
2022-09-20T01:34:31.908Z,22.70
2022-09-20T01:38:39.315Z,16.83
2022-09-20T01:42:44.284Z,16.20
2022-09-20T01:46:47.327Z,25.20
2022-09-20T01:51:03.670Z,16.67
2022-09-20T01:55:28.140Z,19.20
2022-09-20T01:59:38.345Z,17.10
2022-09-20T02:03:52.099Z,28.03
2022-09-20T02:08:23.421Z,14.93
2022-09-20T02:12:34.094Z,22.77
2022-09-20T02:16:47.351Z,27.47
2022-09-20T02:21:13.360Z,25.67
2022-09-20T02:25:52.416Z,23.87
2022-09-20T02:30:06.451Z,15.67
2022-09-20T02:34:19.641Z,20.87
2022-09-20T02:38:45.691Z,20.47
2022-09-20T02:43:14.601Z,21.43
2022-09-20T02:47:34.438Z,19.17
2022-09-20T02:51:54.262Z,24.40
2022-09-20T02:56:13.977Z,20.60
2022-09-20T03:00:27.325Z,18.73
2022-09-20T03:04:32.030Z,24.73
2022-09-20T03:08:42.610Z,18.03
2022-09-20T03:13:04.005Z,19.30
2022-09-20T03:17:21.090Z,16.93
2022-09-20T03:21:49.135Z,20.23
2022-09-20T03:25:56.714Z,14.90
2022-09-20T03:30:09.375Z,19.60
2022-09-20T03:34:31.860Z,17.97
2022-09-20T03:39:02.664Z,17.33
2022-09-20T03:43:32.797Z,18.03
2022-09-20T03:48:10.910Z,18.57
2022-09-20T03:52:21.550Z,23.90
2022-09-20T03:56:41.820Z,23.97
2022-09-20T04:01:04.957Z,17.90
2022-09-20T04:05:18.977Z,25.50
2022-09-20T04:09:47.547Z,17.93
2022-09-20T04:13:52.312Z,23.93
2022-09-20T04:17:57.106Z,25.90
2022-09-20T04:22:00.188Z,25.23
2022-09-20T04:26:03.504Z,19.73
2022-09-20T04:30:19.400Z,33.77
2022-09-20T04:34:28.834Z,34.17
2022-09-20T04:38:30.325Z,28.60
2022-09-20T04:42:47.342Z,28.20
2022-09-20T04:46:57.950Z,32.23
2022-09-20T04:51:22.252Z,34.33
2022-09-20T04:55:44.246Z,32.57
2022-09-20T05:00:11.960Z,35.70
2022-09-20T05:04:40.086Z,38.27
2022-09-20T05:09:02.886Z,37.43
2022-09-20T05:13:17.111Z,38.67
2022-09-20T05:17:39.413Z,35.57
2022-09-20T05:21:52.953Z,39.10
2022-09-20T05:26:13.196Z,40.50
2022-09-20T05:30:37.415Z,39.03
2022-09-20T05:34:54.912Z,36.37
2022-09-20T05:39:19.662Z,37.67
2022-09-20T05:43:25.761Z,35.30
2022-09-20T05:47:42.123Z,41.17
2022-09-20T05:52:11.311Z,31.53
2022-09-20T05:56:24.806Z,31.43
2022-09-20T06:00:28.975Z,28.77
2022-09-20T06:04:59.495Z,26.50
2022-09-20T06:09:07.403Z,32.40
2022-09-20T06:13:24.245Z,27.90
2022-09-20T06:17:29.136Z,25.50
2022-09-20T06:21:37.361Z,19.53
2022-09-20T06:25:55.451Z,28.10
2022-09-20T06:30:08.799Z,23.17
2022-09-20T06:34:13.581Z,22.03
2022-09-20T06:38:58.312Z,22.40
2022-09-20T06:43:00.153Z,23.13
2022-09-20T06:47:01.013Z,19.17
2022-09-20T06:51:01.980Z,25.90
2022-09-20T06:55:05.309Z,23.63
2022-09-20T06:59:08.412Z,22.37
2022-09-20T07:03:11.385Z,23.07
2022-09-20T07:07:18.820Z,22.97
2022-09-20T07:11:21.531Z,19.53
2022-09-20T07:15:24.064Z,15.57
2022-09-20T07:19:25.112Z,18.47
2022-09-20T07:23:29.844Z,20.63
2022-09-20T07:27:30.821Z,16.07
2022-09-20T07:31:31.871Z,12.50
2022-09-20T07:35:32.817Z,13.50
2022-09-20T07:39:33.767Z,13.03
2022-09-20T07:43:35.802Z,11.73
2022-09-20T07:47:38.877Z,10.83
2022-09-20T07:51:39.903Z,15.63
2022-09-20T07:55:40.834Z,11.40
2022-09-20T07:59:41.711Z,8.20
2022-09-20T08:03:44.407Z,7.90
2022-09-20T08:07:45.410Z,8.33
2022-09-20T08:11:46.690Z,6.90
2022-09-20T08:15:48.045Z,7.33
2022-09-20T08:19:50.132Z,12.13
2022-09-20T08:23:51.227Z,7.83
2022-09-20T08:27:53.544Z,6.57
2022-09-20T08:31:56.491Z,10.57
2022-09-20T08:35:58.093Z,8.77
2022-09-20T08:40:02.204Z,16.40
2022-09-20T08:44:07.025Z,8.10
2022-09-20T08:48:14.223Z,7.07
2022-09-20T08:52:20.242Z,6.10
2022-09-20T08:56:22.184Z,9.23
2022-09-20T09:00:26.262Z,6.67
2022-09-20T09:04:36.440Z,8.33
2022-09-20T09:08:38.828Z,6.03
2022-09-20T09:12:48.512Z,13.57
2022-09-20T09:16:45.480Z,5.20
2022-09-20T09:20:47.089Z,7.13
2022-09-20T09:25:08.608Z,6.07
2022-09-20T09:29:17.097Z,4.67
2022-09-20T09:33:33.235Z,7.63
2022-09-20T09:37:34.582Z,7.47
2022-09-20T09:41:36.309Z,8.07
2022-09-20T09:45:39.115Z,4.57
2022-09-20T09:49:45.078Z,7.57
2022-09-20T09:53:48.622Z,8.70
2022-09-20T09:57:55.115Z,9.40
2022-09-20T10:02:10.780Z,7.40
2022-09-20T10:06:24.498Z,6.20
2022-09-20T10:10:36.317Z,4.53
2022-09-20T10:14:59.251Z,5.67
2022-09-20T10:19:25.308Z,6.27
2022-09-20T10:27:57.783Z,5.23
2022-09-20T10:32:34.678Z,5.03
2022-09-20T10:36:45.063Z,5.53
2022-09-20T10:41:34.456Z,4.77
2022-09-20T10:46:08.815Z,5.60
2022-09-20T10:50:23.282Z,10.27
2022-09-20T10:54:28.351Z,4.90
2022-09-20T10:58:53.445Z,6.27
2022-09-20T11:03:01.527Z,10.13
2022-09-20T11:07:25.165Z,4.83
2022-09-20T11:11:32.894Z,4.93
2022-09-20T11:15:37.802Z,3.67
2022-09-20T11:20:06.407Z,4.67
2022-09-20T11:24:18.517Z,4.90
2022-09-20T11:32:36.004Z,3.27
2022-09-20T11:36:51.651Z,5.53
2022-09-20T11:41:02.261Z,6.03
2022-09-20T11:45:03.982Z,3.30
2022-09-20T11:49:15.480Z,4.93
2022-09-20T11:53:48.153Z,6.60
2022-09-20T11:58:04.917Z,7.67
2022-09-20T12:02:18.698Z,5.13
2022-09-20T12:06:31.139Z,6.17
2022-09-20T12:10:35.931Z,7.90
2022-09-20T12:14:37.687Z,7.60
2022-09-20T12:18:48.953Z,7.60
2022-09-20T12:22:50.039Z,13.70
2022-09-20T12:26:56.155Z,5.80
2022-09-20T12:31:21.195Z,4.30
2022-09-20T12:35:43.332Z,1.90
2022-09-20T12:39:51.014Z,2.13
2022-09-20T12:43:56.000Z,3.83
2022-09-20T12:47:56.997Z,2.67
2022-09-20T12:52:17.635Z,1.13
2022-09-20T12:56:22.121Z,2.37
2022-09-20T13:00:40.293Z,1.43
2022-09-20T13:04:54.966Z,4.47
2022-09-20T13:09:04.457Z,2.43
2022-09-20T13:13:20.205Z,3.33
2022-09-20T13:17:32.259Z,4.60
2022-09-20T13:21:39.947Z,2.43
2022-09-20T13:25:43.303Z,3.50
2022-09-20T13:29:45.999Z,2.83
2022-09-20T13:33:47.955Z,5.83
2022-09-20T13:37:55.280Z,4.07
2022-09-20T13:42:03.100Z,4.07
2022-09-20T13:46:19.790Z,4.13
2022-09-20T13:50:27.876Z,3.17
2022-09-20T13:54:31.717Z,2.73
2022-09-20T13:58:36.563Z,4.83
2022-09-20T14:02:39.484Z,4.10
2022-09-20T14:06:41.760Z,4.43
2022-09-20T14:10:43.586Z,4.10
2022-09-20T14:14:46.916Z,2.67
2022-09-20T14:18:48.970Z,2.90
2022-09-20T14:22:50.032Z,2.50
2022-09-20T14:27:21.382Z,3.10
2022-09-20T14:31:33.933Z,2.43
2022-09-20T14:35:37.522Z,2.60
2022-09-20T14:39:46.081Z,2.67
2022-09-20T14:43:52.839Z,2.93
2022-09-20T14:48:10.441Z,3.70
2022-09-20T14:52:29.700Z,2.37
2022-09-20T14:56:37.150Z,5.00
2022-09-20T15:01:04.633Z,3.00
2022-09-20T15:05:08.734Z,4.33
2022-09-20T15:09:12.691Z,3.83
2022-09-20T15:13:16.836Z,2.67
2022-09-20T15:17:22.101Z,1.10
2022-09-20T15:21:23.983Z,3.73
2022-09-20T15:25:25.838Z,2.77
2022-09-20T15:29:27.881Z,1.70
2022-09-20T15:33:31.919Z,6.07
2022-09-20T15:37:33.567Z,5.03
2022-09-20T15:41:37.284Z,1.57
2022-09-20T15:45:49.908Z,2.80
2022-09-20T15:49:52.397Z,6.87
2022-09-20T15:53:56.629Z,6.10
2022-09-20T15:57:57.753Z,2.83
2022-09-20T16:02:00.429Z,3.13
2022-09-20T16:06:04.931Z,2.37
2022-09-20T16:10:07.307Z,2.23
2022-09-20T16:14:08.625Z,3.47
2022-09-20T16:18:28.408Z,6.67
2022-09-20T16:22:31.402Z,2.87
2022-09-20T16:26:34.076Z,3.73
2022-09-20T16:30:35.268Z,3.77
2022-09-20T16:34:37.125Z,2.40
2022-09-20T16:38:39.244Z,3.23
2022-09-20T16:42:40.955Z,3.23
2022-09-20T16:46:43.886Z,2.70
2022-09-20T16:50:48.830Z,3.13
2022-09-20T16:54:50.051Z,2.33
2022-09-20T16:58:52.164Z,3.70
2022-09-20T17:02:53.627Z,4.30
2022-09-20T17:06:55.087Z,3.07
2022-09-20T17:11:01.335Z,2.70
2022-09-20T17:15:03.994Z,5.80
2022-09-20T17:19:12.089Z,2.33
2022-09-20T17:23:14.376Z,4.13
2022-09-20T17:27:17.619Z,2.80
2022-09-20T17:31:20.658Z,4.27
2022-09-20T17:35:22.942Z,5.50
2022-09-20T17:39:25.286Z,5.47
2022-09-20T17:43:29.608Z,5.15
2022-09-20T17:47:31.407Z,6.00
2022-09-20T17:51:35.750Z,4.90
2022-09-20T17:55:38.948Z,4.27
2022-09-20T17:59:41.107Z,4.50
2022-09-20T18:03:45.850Z,5.00
2022-09-20T18:07:47.030Z,4.80
2022-09-20T18:11:52.054Z,6.53
2022-09-20T18:15:54.664Z,4.80
2022-09-20T18:19:57.599Z,4.23
2022-09-20T18:23:59.028Z,3.90
2022-09-20T18:28:02.610Z,4.00
2022-09-20T18:32:07.715Z,6.10
2022-09-20T18:36:09.361Z,4.40
2022-09-20T18:40:10.996Z,5.13
2022-09-20T18:44:14.185Z,4.70
2022-09-20T18:48:16.594Z,3.07
2022-09-20T18:52:22.412Z,2.37
2022-09-20T18:56:29.596Z,2.80
2022-09-20T19:00:32.255Z,3.57
2022-09-20T19:04:49.472Z,6.23
2022-09-20T19:08:55.468Z,4.37
2022-09-20T19:13:22.583Z,4.40
2022-09-20T19:17:28.720Z,3.67
2022-09-20T19:21:46.175Z,4.13
2022-09-20T19:25:48.146Z,3.20
2022-09-20T19:29:50.349Z,3.30
2022-09-20T19:33:56.981Z,3.47
2022-09-20T19:38:10.446Z,4.17
2022-09-20T19:42:23.314Z,4.30
2022-09-20T19:46:35.441Z,9.23
2022-09-20T19:50:46.418Z,3.17
2022-09-20T19:54:50.129Z,2.90
2022-09-20T19:58:52.992Z,4.10
2022-09-20T20:02:56.539Z,3.13
2022-09-20T20:07:07.817Z,4.03
2022-09-20T20:11:34.607Z,4.33
2022-09-20T20:15:50.466Z,2.80
2022-09-20T20:20:17.448Z,6.47
2022-09-20T20:24:25.547Z,5.80
2022-09-20T20:28:27.398Z,5.03
2022-09-20T20:32:29.038Z,7.83
2022-09-20T20:36:30.804Z,9.40
2022-09-20T20:40:33.294Z,6.87
2022-09-20T20:44:34.736Z,6.40
2022-09-20T20:48:36.798Z,8.67
2022-09-20T20:52:38.599Z,9.40
2022-09-20T20:56:41.245Z,6.67
2022-09-20T21:00:43.246Z,8.60
2022-09-20T21:04:44.840Z,7.00
2022-09-20T21:08:49.607Z,5.53
2022-09-20T21:12:55.388Z,7.07
2022-09-20T21:16:56.923Z,12.37
2022-09-20T21:20:58.389Z,8.07
2022-09-20T21:25:00.048Z,8.07
2022-09-20T21:29:04.377Z,14.87
2022-09-20T21:33:05.431Z,11.30
2022-09-20T21:37:07.430Z,9.03
2022-09-20T21:41:14.802Z,6.13
2022-09-20T21:45:18.971Z,6.23
2022-09-20T21:49:19.955Z,7.17
2022-09-20T21:53:22.089Z,6.60
2022-09-20T21:57:23.225Z,6.07
2022-09-20T22:01:26.607Z,7.83
2022-09-20T22:05:27.961Z,8.33
2022-09-20T22:09:30.714Z,8.60
2022-09-20T22:13:31.999Z,9.30
2022-09-20T22:17:33.125Z,9.50
2022-09-20T22:21:36.502Z,8.17
2022-09-20T22:25:37.470Z,8.00
2022-09-20T22:29:38.448Z,8.43
2022-09-20T22:33:50.800Z,7.93
2022-09-20T22:37:51.784Z,9.30
2022-09-20T22:41:53.822Z,17.67
2022-09-20T22:45:58.772Z,8.43
2022-09-20T22:49:59.701Z,7.33
2022-09-20T22:54:07.826Z,6.77
2022-09-20T22:58:08.870Z,5.60
2022-09-20T23:02:10.075Z,8.23
2022-09-20T23:06:21.362Z,9.37
2022-09-20T23:10:22.883Z,7.80
2022-09-20T23:14:24.582Z,7.50
2022-09-20T23:18:26.448Z,8.20
2022-09-20T23:22:28.678Z,7.93
2022-09-20T23:26:31.584Z,7.37
2022-09-20T23:30:32.740Z,7.37
2022-09-20T23:34:33.776Z,8.23
2022-09-20T23:38:35.569Z,7.80
2022-09-20T23:42:36.765Z,11.83
2022-09-20T23:46:38.387Z,5.90
2022-09-20T23:50:42.480Z,6.70
2022-09-20T23:54:43.462Z,13.47
2022-09-20T23:58:45.542Z,7.93
